Map

Track Data

SID SEASON NUMBER BASIN SUBBASIN NAME ISO_TIME NATURE LAT LON WMO_WIND WMO_PRES WMO_AGENCY TRACK_TYPE DIST2LAND LANDFALL IFLAG USA_AGENCY USA_ATCF_ID USA_LAT USA_LON USA_RECORD USA_STATUS USA_WIND USA_PRES USA_SSHS USA_R34_NE USA_R34_SE USA_R34_SW USA_R34_NW USA_R50_NE USA_R50_SE USA_R50_SW USA_R50_NW USA_R64_NE USA_R64_SE USA_R64_SW USA_R64_NW USA_POCI USA_ROCI USA_RMW USA_EYE TOKYO_LAT TOKYO_LON TOKYO_GRADE TOKYO_WIND TOKYO_PRES TOKYO_R50_DIR TOKYO_R50_LONG TOKYO_R50_SHORT TOKYO_R30_DIR TOKYO_R30_LONG TOKYO_R30_SHORT TOKYO_LAND CMA_LAT CMA_LON CMA_CAT CMA_WIND CMA_PRES HKO_LAT HKO_LON HKO_CAT HKO_WIND HKO_PRES NEWDELHI_LAT NEWDELHI_LON NEWDELHI_GRADE NEWDELHI_WIND NEWDELHI_PRES NEWDELHI_CI NEWDELHI_DP NEWDELHI_POCI REUNION_LAT REUNION_LON REUNION_TYPE REUNION_WIND REUNION_PRES REUNION_TNUM REUNION_CI REUNION_RMW REUNION_R34_NE REUNION_R34_SE REUNION_R34_SW REUNION_R34_NW REUNION_R50_NE REUNION_R50_SE REUNION_R50_SW REUNION_R50_NW REUNION_R64_NE REUNION_R64_SE REUNION_R64_SW REUNION_R64_NW BOM_LAT BOM_LON BOM_TYPE BOM_WIND BOM_PRES BOM_TNUM BOM_CI BOM_RMW BOM_R34_NE BOM_R34_SE BOM_R34_SW BOM_R34_NW BOM_R50_NE BOM_R50_SE BOM_R50_SW BOM_R50_NW BOM_R64_NE BOM_R64_SE BOM_R64_SW BOM_R64_NW BOM_ROCI BOM_POCI BOM_EYE BOM_POS_METHOD BOM_PRES_METHOD NADI_LAT NADI_LON NADI_CAT NADI_WIND NADI_PRES WELLINGTON_LAT WELLINGTON_LON WELLINGTON_WIND WELLINGTON_PRES DS824_LAT DS824_LON DS824_STAGE DS824_WIND DS824_PRES TD9636_LAT TD9636_LON TD9636_STAGE TD9636_WIND TD9636_PRES TD9635_LAT TD9635_LON TD9635_WIND TD9635_PRES TD9635_ROCI NEUMANN_LAT NEUMANN_LON NEUMANN_CLASS NEUMANN_WIND NEUMANN_PRES MLC_LAT MLC_LON MLC_CLASS MLC_WIND MLC_PRES USA_GUST BOM_GUST BOM_GUST_PER REUNION_GUST REUNION_GUST_PER USA_SEAHGT USA_SEARAD_NE USA_SEARAD_SE USA_SEARAD_SW USA_SEARAD_NW STORM_SPEED STORM_DIR
1919061S21155 1919 3 SP EA NOT_NAMED 1919-03-01 23:00:00 NR -20.7000 154.600 988 bom main 441 426 ______O_______ -1 -20.7000 154.600 988 4 9 229
1919061S21155 1919 3 SP EA NOT_NAMED 1919-03-02 00:00:00 TS -20.7969 154.483 main 426 374 ______P__O____ -1 -20.7954 154.474 -20.8000 154.500 TC 50 988 9 228
1919061S21155 1919 3 SP EA NOT_NAMED 1919-03-02 03:00:00 TS -21.1001 154.119 main 374 332 ______P__P____ -1 -21.0839 154.100 -21.1245 154.147 TC 9 228
1919061S21155 1919 3 SP EA NOT_NAMED 1919-03-02 06:00:00 TS -21.4122 153.763 main 332 282 ______P__P____ -1 -21.3814 153.736 -21.4533 153.800 TC 9 225
1919061S21155 1919 3 SP EA NOT_NAMED 1919-03-02 09:00:00 TS -21.7433 153.429 main 282 240 ______P__P____ -1 -21.6953 153.392 -21.7913 153.467 TC 9 222
1919061S21155 1919 3 SP EA NOT_NAMED 1919-03-02 12:00:00 TS -22.0884 153.116 main 240 216 ______P__P____ -1 -22.0331 153.075 -22.1437 153.157 TC 9 218
1919061S21155 1919 3 SP EA NOT_NAMED 1919-03-02 15:00:00 TS -22.4590 152.836 main 205 166 ______P__P____ -1 -22.4025 152.796 -22.5155 152.877 TC 9 212
1919061S21155 1919 3 SP EA NOT_NAMED 1919-03-02 18:00:00 TS -22.8615 152.599 main 156 108 ______P__P____ -1 -22.8111 152.562 -22.9120 152.635 TC 9 205
1919061S21155 1919 3 SP EA NOT_NAMED 1919-03-02 21:00:00 TS -23.3025 152.412 main 108 75 ______P__P____ -1 -23.2665 152.384 -23.3384 152.440 TC 10 199
1919061S21155 1919 3 SP EA NOT_NAMED 1919-03-02 23:00:00 TS -23.6210 152.320 bom main 75 60 ______O__P____ -1 -23.6000 152.300 -23.6419 152.340 TC 10 194
1919061S21155 1919 3 SP EA NOT_NAMED 1919-03-03 00:00:00 TS -23.7880 152.285 main 60 30 ______P__O____ -1 -23.7760 152.270 -23.8000 152.300 TC 10 188
1919061S21155 1919 3 SP EA NOT_NAMED 1919-03-03 03:00:00 TS -24.3045 152.218 main 30 0 ______P__P____ -1 -24.3132 152.216 -24.2958 152.221 TC 10 184
1919061S21155 1919 3 SP EA NOT_NAMED 1919-03-03 06:00:00 TS -24.8000 152.200 bom main 0 0 ______O__O____ -1 -24.8000 152.200 -24.8000 152.200 TC 9 181
1919061S21155 1919 3 SP EA NOT_NAMED 1919-03-03 09:00:00 TS -25.2321 152.212 main 0 0 ______P__P____ -1 -25.1778 152.192 -25.2864 152.232 TC 9 0
1919061S21155 1919 3 SP EA NOT_NAMED 1919-03-03 10:00:00 TS -25.3720 152.227 bom main 0 0 ______O__P____ -1 -25.3000 152.200 -25.4440 152.254 TC 9 173
1919061S21155 1919 3 SP EA NOT_NAMED 1919-03-03 12:00:00 TS -25.6587 152.272 main 0 0 ______P__P____ -1 -25.5644 152.234 -25.7531 152.310 TC 9 169
1919061S21155 1919 3 SP EA NOT_NAMED 1919-03-03 15:00:00 TS -26.0954 152.378 main 0 0 ______P__P____ -1 -25.9868 152.332 -26.2039 152.424 TC 9 166
1919061S21155 1919 3 SP EA NOT_NAMED 1919-03-03 18:00:00 TS -26.5437 152.523 main 0 0 ______P__P____ -1 -26.4447 152.479 -26.6427 152.566 TC 10 163
1919061S21155 1919 3 SP EA NOT_NAMED 1919-03-03 21:00:00 TS -26.9989 152.691 main 0 0 ______P__P____ -1 -26.9429 152.663 -27.0735 152.728 TC 10 162
1919061S21155 1919 3 SP EA NOT_NAMED 1919-03-03 23:00:00 TS -27.3193 152.814 bom main 0 0 ______O__P____ -1 -27.3000 152.800 -27.3580 152.842 TC 10 161
1919061S21155 1919 3 SP EA NOT_NAMED 1919-03-04 00:00:00 TS -27.4891 152.878 main 0 0 ______P__O____ -1 -27.4864 152.872 -27.5000 152.900 TC 12 161
1919061S21155 1919 3 SP EA NOT_NAMED 1919-03-04 03:00:00 NR -28.0722 153.099 main 0 0 ______P_______ -1 -28.0722 153.099 TC 13 161
1919061S21155 1919 3 SP EA NOT_NAMED 1919-03-04 06:00:00 NR -28.6848 153.337 main 0 0 ______P_______ -1 -28.6848 153.337 TC 13 161
1919061S21155 1919 3 SP EA NOT_NAMED 1919-03-04 08:00:00 NR -29.1000 153.500 bom main 9 ______O_______ -1 -29.1000 153.500 TC 13 161

Digital Typhoon Data and Search

About IBTrACS Database

This database is a web-friendly format of International Best Track Archive for Climate Stewardship (IBTrACS), a global best track data archive curated by NOAA dating back to 1842.

Updated: 2021-10-08